Time;durP1;ratioP1;P1;durP2;ratioP2;P2;SDS_P1;SDS_P2;PMS_P1;PMS_P2;Temp;Humidity;BMP_temperature;BMP_pressure;BME280_temperature;BME280_humidity;BME280_pressure;Samples;Min_cycle;Max_cycle;Signal;HPM_P1;HPM_P2
2022/06/30 00:01:40;;;;;;;13.77;6.00;;;14.50;99.90;;;13.52;100.00;101207.38;5006222;28;20042;-77
2022/06/30 00:04:06;;;;;;;;;;;14.50;99.90;;;13.42;100.00;101202.63;4989978;28;20022;-77
2022/06/30 00:06:32;;;;;;;15.15;5.80;;;14.50;99.90;;;13.40;100.00;101197.41;4963830;28;19918;-77
2022/06/30 00:08:58;;;;;;;15.73;7.97;;;14.40;99.90;;;13.39;100.00;101194.84;4958102;28;20604;-77
2022/06/30 00:11:24;;;;;;;18.80;8.27;;;14.40;99.90;;;13.40;100.00;101192.13;4978118;28;20061;-78
2022/06/30 00:13:51;;;;;;;12.23;5.95;;;14.40;99.90;;;13.43;100.00;101191.09;4990206;28;20026;-77
2022/06/30 00:16:17;;;;;;;10.88;6.15;;;14.40;99.90;;;13.46;100.00;101189.16;4970597;28;20113;-77
2022/06/30 00:18:43;;;;;;;10.73;6.07;;;14.50;99.90;;;13.48;100.00;101195.25;4982227;28;20026;-77
2022/06/30 00:21:09;;;;;;;13.98;5.72;;;14.50;99.90;;;13.50;100.00;101198.66;4973652;28;20053;-77
2022/06/30 00:23:35;;;;;;;16.58;7.22;;;14.40;99.90;;;13.48;100.00;101192.59;4970469;28;21071;-76
2022/06/30 00:26:01;;;;;;;17.77;8.98;;;14.40;99.90;;;13.51;100.00;101187.13;4980708;28;20041;-78
2022/06/30 00:28:27;;;;;;;16.35;6.82;;;14.50;99.90;;;13.57;100.00;101185.97;4981853;28;20045;-77
2022/06/30 00:30:53;;;;;;;13.13;7.45;;;14.60;99.90;;;13.62;100.00;101188.38;4986532;28;20025;-77
2022/06/30 00:33:19;;;;;;;20.17;6.65;;;14.60;99.90;;;13.60;100.00;101185.81;4989387;28;20022;-77
2022/06/30 00:35:47;;;;;;;21.67;9.00;;;14.50;99.90;;;13.60;100.00;101187.59;4984444;28;20030;-77
2022/06/30 00:38:13;;;;;;;12.88;8.70;;;14.50;99.90;;;13.59;100.00;101185.91;4945689;28;20026;-77
2022/06/30 00:40:43;;;;;;;15.10;9.05;;;14.50;99.90;;;13.57;100.00;101179.84;4965959;28;20034;-77
2022/06/30 00:43:09;;;;;;;16.00;9.02;;;14.50;99.90;;;13.54;100.00;101179.06;4977878;28;20030;-77
2022/06/30 00:45:43;;;;;;;13.60;8.10;;;14.50;99.90;;;13.58;100.00;101190.31;4981389;28;20043;-77
2022/06/30 00:48:11;;;;;;;15.38;9.82;;;14.50;99.90;;;13.60;100.00;101184.94;4979458;28;20386;-77
2022/06/30 00:50:37;;;;;;;22.35;10.15;;;14.60;99.90;;;13.61;100.00;101190.19;4976284;28;20040;-77
2022/06/30 00:53:05;;;;;;;21.75;10.38;;;14.60;99.90;;;13.63;100.00;101187.44;4979860;28;20034;-77
2022/06/30 00:55:33;;;;;;;20.45;9.95;;;14.60;99.90;;;13.66;100.00;101189.94;5006670;28;20022;-77
2022/06/30 00:58:04;;;;;;;20.38;9.50;;;14.60;99.90;;;13.66;100.00;101193.44;4978902;28;20523;-77
2022/06/30 01:00:40;;;;;;;23.02;10.10;;;14.60;99.90;;;13.66;100.00;101180.19;4971063;28;20050;-77
2022/06/30 01:03:07;;;;;;;25.60;10.32;;;14.60;99.90;;;13.60;100.00;101177.00;4964238;28;20038;-77
2022/06/30 01:05:34;;;;;;;20.25;9.50;;;14.50;99.90;;;13.53;100.00;101179.13;4972268;28;20034;-77
2022/06/30 01:08:02;;;;;;;17.48;8.45;;;14.60;99.90;;;13.50;100.00;101168.72;4975489;28;20042;-77
2022/06/30 01:13:13;;;;;;;22.33;8.95;;;14.50;99.90;;;13.46;100.00;101175.94;4981756;28;20161;-78
2022/06/30 01:15:39;;;;;;;21.42;8.95;;;14.50;99.90;;;13.48;100.00;101171.44;4992748;28;20030;-77
2022/06/30 01:18:05;;;;;;;;;;;14.50;99.90;;;13.47;100.00;101174.16;4975692;28;20041;-77
2022/06/30 01:20:33;;;;;;;16.85;7.70;;;14.50;99.90;;;13.48;100.00;101179.38;4980453;28;19913;-77
2022/06/30 01:23:02;;;;;;;26.75;9.73;;;14.50;99.90;;;13.51;100.00;101178.34;4983015;28;20378;-77
2022/06/30 01:25:28;;;;;;;25.70;15.48;;;14.50;99.90;;;13.51;100.00;101188.94;4978656;28;20076;-77
2022/06/30 01:27:55;;;;;;;23.20;12.55;;;14.50;99.90;;;13.56;100.00;101178.09;4983165;28;20029;-77
2022/06/30 01:30:23;;;;;;;23.20;10.40;;;14.50;99.90;;;13.57;100.00;101183.31;4989828;28;20057;-77
2022/06/30 01:32:49;;;;;;;31.38;9.65;;;14.60;99.90;;;13.58;100.00;101195.59;5009594;28;20497;-77
2022/06/30 01:35:16;;;;;;;22.42;8.20;;;14.50;99.90;;;13.56;100.00;101186.88;4995405;28;20109;-77
2022/06/30 01:37:52;;;;;;;15.52;7.60;;;14.50;99.90;;;13.54;100.00;101192.28;4993858;28;20048;-77
2022/06/30 01:40:19;;;;;;;17.65;8.35;;;14.50;99.90;;;13.50;100.00;101181.94;4985413;28;20042;-77
2022/06/30 01:42:45;;;;;;;42.97;28.10;;;14.50;99.90;;;13.51;100.00;101188.94;4971453;28;20056;-77
2022/06/30 01:45:11;;;;;;;16.98;8.57;;;14.50;99.90;;;13.46;100.00;101180.38;4973442;28;20485;-77
2022/06/30 01:47:38;;;;;;;18.50;8.35;;;14.40;99.90;;;13.41;100.00;101179.75;4976856;28;20073;-77
2022/06/30 01:50:15;;;;;;;16.63;8.90;;;14.40;99.90;;;13.37;100.00;101175.53;5000050;28;20045;-77
2022/06/30 01:52:42;;;;;;;19.58;9.75;;;14.40;99.90;;;13.34;100.00;101177.41;4987383;28;20121;-77
2022/06/30 01:55:09;;;;;;;26.48;10.05;;;14.40;99.90;;;13.36;100.00;101180.00;4994273;28;20033;-77
2022/06/30 01:57:36;;;;;;;20.38;9.63;;;14.40;99.90;;;13.35;100.00;101173.00;4992843;28;20038;-77
2022/06/30 02:00:05;;;;;;;33.33;10.80;;;14.40;99.90;;;13.40;100.00;101178.06;4967915;28;20021;-77
2022/06/30 02:02:31;;;;;;;21.02;7.68;;;14.40;99.90;;;13.44;100.00;101176.97;4993036;28;20028;-77
2022/06/30 02:04:57;;;;;;;11.43;8.05;;;14.40;99.90;;;13.45;100.00;101178.66;4975675;28;21041;-77
2022/06/30 02:07:23;;;;;;;;;;;14.40;99.90;;;13.44;100.00;101176.97;4984136;28;20656;-77
2022/06/30 02:09:53;;;;;;;18.00;7.15;;;14.40;99.90;;;13.44;100.00;101180.47;4983743;28;19917;-77
2022/06/30 02:15:07;;;;;;;23.50;10.18;;;14.40;99.90;;;13.48;100.00;101174.06;4976133;28;20029;-78
2022/06/30 02:17:33;;;;;;;19.33;8.45;;;14.40;99.90;;;13.51;100.00;101178.34;4977877;28;20060;-77
2022/06/30 02:19:59;;;;;;;21.00;9.30;;;14.50;99.90;;;13.53;100.00;101171.19;4991598;28;20026;-77
2022/06/30 02:22:25;;;;;;;32.15;9.82;;;14.50;99.90;;;13.51;100.00;101173.91;4991756;28;20029;-77
2022/06/30 02:24:51;;;;;;;26.92;9.00;;;14.50;99.90;;;13.49;100.00;101175.78;4989771;28;20484;-77
2022/06/30 02:27:20;;;;;;;23.77;8.77;;;14.50;99.90;;;13.49;100.00;101186.34;4994243;28;20049;-77
2022/06/30 02:29:46;;;;;;;15.73;8.82;;;14.50;99.90;;;13.51;100.00;101178.34;4974092;28;20101;-77
2022/06/30 02:32:12;;;;;;;16.85;9.18;;;14.50;99.90;;;13.53;100.00;101179.13;4993262;28;20520;-77
2022/06/30 02:34:38;;;;;;;28.38;10.32;;;14.50;99.90;;;13.58;100.00;101184.19;4982942;28;20029;-77
2022/06/30 02:37:04;;;;;;;;;;;14.50;99.90;;;13.61;100.00;101181.38;4984997;28;20039;-77
2022/06/30 02:39:37;;;;;;;34.33;10.85;;;14.50;99.90;;;13.51;100.00;101181.84;4996057;28;19905;-78
2022/06/30 02:42:03;;;;;;;29.77;7.45;;;14.50;99.90;;;13.52;100.00;101174.78;4983006;28;20041;-78
2022/06/30 02:44:29;;;;;;;31.90;8.52;;;14.50;99.90;;;13.56;100.00;101175.47;4980481;28;20490;-77
2022/06/30 02:46:55;;;;;;;26.95;9.15;;;14.50;99.90;;;13.57;100.00;101178.03;4976197;28;20034;-77
2022/06/30 02:49:21;;;;;;;17.33;5.00;;;14.50;99.90;;;13.59;100.00;101184.09;4994083;28;20037;-77
2022/06/30 02:51:48;;;;;;;21.17;8.73;;;14.50;99.90;;;13.62;100.00;101188.38;4972713;28;20117;-78
2022/06/30 02:54:14;;;;;;;25.70;9.90;;;14.60;99.90;;;13.63;100.00;101182.13;4985463;28;20187;-77
2022/06/30 02:56:41;;;;;;;18.98;8.23;;;14.50;99.90;;;13.63;100.00;101182.13;4958429;28;20122;-78
2022/06/30 02:59:08;;;;;;;22.27;9.65;;;14.60;99.90;;;13.70;100.00;101175.59;4990075;28;20039;-77
2022/06/30 03:01:34;;;;;;;29.70;11.38;;;14.60;99.90;;;13.71;100.00;101182.59;4983426;28;20581;-77
2022/06/30 03:04:08;;;;;;;42.40;10.00;;;14.60;99.90;;;13.78;100.00;101177.84;4990607;28;20037;-77
2022/06/30 03:06:35;;;;;;;23.45;8.77;;;14.60;99.90;;;13.78;100.00;101172.53;4999249;28;20034;-77
2022/06/30 03:09:02;;;;;;;20.55;9.52;;;14.70;99.90;;;13.77;100.00;101174.34;4991866;28;20063;-77
2022/06/30 03:11:28;;;;;;;24.48;10.13;;;14.70;99.90;;;13.83;100.00;101181.97;4972524;28;20062;-78
2022/06/30 03:13:54;;;;;;;28.92;11.88;;;14.70;99.90;;;13.93;100.00;101177.00;4967177;28;20105;-77
2022/06/30 03:16:23;;;;;;;33.65;11.07;;;14.80;99.90;;;14.02;100.00;101167.75;4973309;28;20413;-77
2022/06/30 03:18:49;;;;;;;29.17;10.38;;;14.90;99.90;;;14.08;100.00;101168.28;4989624;28;20134;-77
2022/06/30 03:21:15;;;;;;;7.47;4.38;;;15.00;99.90;;;14.16;100.00;101165.19;4984578;28;20028;-77
2022/06/30 03:23:41;;;;;;;25.00;10.27;;;15.10;99.90;;;14.27;100.00;101157.50;4986248;28;20462;-78
2022/06/30 03:26:07;;;;;;;26.88;9.77;;;15.20;99.90;;;14.42;100.00;101160.25;4989907;28;20068;-77
2022/06/30 03:28:33;;;;;;;21.92;9.80;;;15.30;99.90;;;14.60;100.00;101161.03;4991931;28;20045;-78
2022/06/30 03:30:59;;;;;;;27.58;10.43;;;15.50;99.90;;;14.77;100.00;101161.81;4962707;28;20168;-77
2022/06/30 03:33:25;;;;;;;19.33;9.02;;;15.60;99.90;;;14.95;100.00;101170.50;4983183;28;20061;-76
2022/06/30 03:35:51;;;;;;;22.67;11.57;;;15.80;99.90;;;15.13;100.00;101165.06;4973128;28;20026;-77
2022/06/30 03:38:17;;;;;;;25.70;10.27;;;15.90;99.90;;;15.29;100.00;101163.22;4970636;28;20029;-77
2022/06/30 03:40:43;;;;;;;26.23;10.77;;;16.10;99.90;;;15.42;100.00;101155.38;4992879;28;20030;-77
2022/06/30 03:43:09;;;;;;;30.20;10.57;;;16.20;99.90;;;15.58;100.00;101155.31;4987209;28;20026;-77
2022/06/30 03:45:36;;;;;;;29.13;10.57;;;16.40;99.90;;;15.72;100.00;101152.69;4982146;28;20026;-78
2022/06/30 03:48:06;;;;;;;26.23;11.07;;;16.50;99.90;;;15.86;100.00;101154.50;4971681;28;20049;-77
2022/06/30 03:50:35;;;;;;;23.48;9.82;;;16.60;99.90;;;15.97;100.00;101149.34;4984508;28;20478;-77
2022/06/30 03:53:02;;;;;;;26.63;9.65;;;16.80;99.90;;;16.16;100.00;101149.06;4956320;28;20041;-77
2022/06/30 03:55:29;;;;;;;21.50;8.15;;;17.30;99.90;;;16.78;100.00;101155.72;4982618;28;20363;-77
2022/06/30 03:57:55;;;;;;;20.45;7.93;;;18.10;99.90;;;17.93;100.00;101161.25;4974065;28;20041;-77
2022/06/30 04:00:22;;;;;;;18.90;6.35;;;19.50;99.90;;;19.43;100.00;101170.66;4978116;28;20050;-77
2022/06/30 04:02:48;;;;;;;14.95;6.10;;;19.80;99.90;;;19.51;100.00;101172.75;4984589;28;20026;-75
2022/06/30 04:05:14;;;;;;;23.45;6.00;;;19.80;99.90;;;19.27;100.00;101170.16;4990110;28;20022;-75
2022/06/30 04:07:48;;;;;;;;;;;19.80;99.90;;;19.03;100.00;101162.19;4994330;28;20431;-75
2022/06/30 04:10:15;;;;;;;16.23;6.28;;;19.50;99.90;;;18.80;100.00;101166.56;4968515;28;20377;-75
2022/06/30 04:12:41;;;;;;;17.83;6.07;;;19.40;99.90;;;18.61;100.00;101157.22;4977419;28;20045;-75
2022/06/30 04:15:08;;;;;;;21.17;6.13;;;19.20;99.90;;;18.50;100.00;101159.00;4984161;28;20045;-75
2022/06/30 04:17:34;;;;;;;19.05;6.68;;;19.20;99.90;;;18.45;100.00;101156.66;4990124;28;20038;-76
2022/06/30 04:20:06;;;;;;;17.00;5.53;;;19.10;99.90;;;18.45;100.00;101152.16;4983761;28;20022;-75
2022/06/30 04:22:32;;;;;;;18.45;5.30;;;19.10;99.90;;;18.51;100.00;101150.88;4971244;28;20080;-76
2022/06/30 04:24:58;;;;;;;14.57;5.00;;;19.30;99.90;;;18.75;100.00;101156.22;4983922;28;20041;-75
2022/06/30 04:27:24;;;;;;;18.60;5.78;;;19.40;99.90;;;18.84;100.00;101149.38;4979071;28;20045;-75
2022/06/30 04:29:50;;;;;;;12.60;4.60;;;19.40;99.90;;;18.85;100.00;101156.41;4980839;28;20038;-78
2022/06/30 04:35:02;;;;;;;17.38;4.95;;;19.40;99.90;;;18.59;100.00;101147.63;4992403;28;19921;-76
2022/06/30 04:37:28;;;;;;;13.88;5.00;;;19.30;99.90;;;18.65;100.00;101145.38;4964762;28;20038;-75
2022/06/30 04:41:23;;;;;;;12.23;4.28;;;19.40;99.90;;;18.68;100.00;101140.78;4965337;28;20031;-76
2022/06/30 04:42:39;;;;;;;12.70;4.30;;;19.40;99.90;;;18.85;100.00;101135.06;4977579;28;20053;-76
2022/06/30 04:45:06;;;;;;;12.73;4.13;;;19.50;99.90;;;18.86;100.00;101134.09;4956323;28;20033;-76
2022/06/30 04:47:36;;;;;;;14.48;4.30;;;19.50;99.90;;;18.90;100.00;101130.25;4968091;28;21818;-76
2022/06/30 04:50:06;;;;;;;12.50;4.30;;;19.60;99.90;;;18.97;100.00;101135.97;4982842;28;20083;-76
2022/06/30 04:52:33;;;;;;;11.98;3.88;;;19.60;99.90;;;18.93;100.00;101127.34;4967292;28;20145;-77
2022/06/30 04:55:01;;;;;;;14.77;4.03;;;19.70;99.90;;;19.04;100.00;101134.53;4988109;28;20106;-76
2022/06/30 04:57:27;;;;;;;15.38;4.03;;;19.70;99.90;;;18.88;100.00;101134.84;4989190;28;20446;-76
2022/06/30 04:59:53;;;;;;;8.00;3.15;;;19.60;99.90;;;18.87;100.00;101118.94;4975184;28;20084;-76
2022/06/30 05:02:19;;;;;;;;;;;19.60;99.90;;;18.71;100.00;101121.88;4976545;28;20038;-76
2022/06/30 05:04:45;;;;;;;9.55;4.13;;;19.60;99.90;;;18.92;100.00;101117.66;4988307;28;19916;-77
2022/06/30 05:07:11;;;;;;;9.50;3.75;;;19.70;99.90;;;18.97;100.00;101123.47;4981807;28;20041;-76
2022/06/30 05:09:37;;;;;;;9.32;3.08;;;19.70;99.90;;;19.02;100.00;101118.63;4988641;28;20025;-76
2022/06/30 05:12:07;;;;;;;9.65;3.67;;;19.80;99.90;;;19.11;100.00;101119.75;4974090;28;20731;-76
2022/06/30 05:14:33;;;;;;;11.55;3.60;;;19.80;99.90;;;19.20;100.00;101116.38;4962668;28;20518;-77
2022/06/30 05:16:58;;;;;;;8.50;2.80;;;19.90;99.90;;;19.25;100.00;101121.38;4991431;28;20032;-76
2022/06/30 05:19:24;;;;;;;;;;;19.90;99.90;;;19.24;100.00;101107.19;4976730;28;20383;-76
2022/06/30 05:21:50;;;;;;;9.02;2.85;;;20.00;99.90;;;19.43;100.00;101111.91;4988225;28;19905;-77
2022/06/30 05:27:02;;;;;;;12.00;2.80;;;20.30;99.90;;;19.65;100.00;101113.78;4957140;28;20090;-77
2022/06/30 05:29:28;;;;;;;6.75;2.53;;;20.30;99.90;;;19.72;100.00;101111.50;4985675;28;22324;-78
2022/06/30 05:31:54;;;;;;;15.40;2.70;;;20.50;99.90;;;19.87;100.00;101120.97;4988934;28;22095;-77
2022/06/30 05:34:20;;;;;;;;;;;20.50;99.90;;;20.00;100.00;101117.31;4980922;28;20088;-77
2022/06/30 05:36:46;;;;;;;10.50;2.45;;;20.60;99.90;;;20.01;100.00;101119.84;4965049;28;19925;-77
2022/06/30 05:39:12;;;;;;;7.70;2.40;;;20.70;99.90;;;20.11;100.00;101111.09;4974743;28;20030;-78
2022/06/30 05:41:38;;;;;;;19.75;2.90;;;20.80;99.90;;;20.15;100.00;101113.41;4985029;28;20052;-77
2022/06/30 05:44:04;;;;;;;12.18;2.50;;;20.90;99.90;;;20.27;100.00;101112.41;4986242;28;20033;-78
2022/06/30 05:46:30;;;;;;;10.07;2.90;;;20.90;99.90;;;20.32;100.00;101108.50;4982940;28;20402;-77
2022/06/30 05:48:56;;;;;;;11.90;2.58;;;21.00;99.90;;;20.47;100.00;101108.13;4985608;28;20026;-77
2022/06/30 05:51:22;;;;;;;12.38;2.70;;;21.00;99.90;;;20.43;100.00;101111.16;4990193;28;20030;-77
2022/06/30 05:53:48;;;;;;;8.07;2.65;;;21.10;99.90;;;20.58;100.00;101103.72;4976479;28;20095;-77
2022/06/30 05:56:14;;;;;;;9.00;2.65;;;21.10;99.90;;;20.57;100.00;101113.56;4966766;28;20027;-77
2022/06/30 05:58:39;;;;;;;;;;;21.20;99.90;;;20.43;100.00;101119.16;4973219;28;20025;-78
2022/06/30 06:01:07;;;;;;;8.00;2.75;;;21.20;99.90;;;20.52;100.00;101110.41;4977539;28;19920;-77
2022/06/30 06:03:36;;;;;;;9.00;2.55;;;21.30;99.90;;;20.89;100.00;101110.03;4958247;28;20038;-77
2022/06/30 06:06:02;;;;;;;6.05;2.15;;;21.50;99.90;;;21.22;97.26;101109.00;4978553;28;20030;-77
2022/06/30 06:08:28;;;;;;;6.50;2.40;;;21.70;99.90;;;21.38;94.82;101107.69;4988545;28;20033;-77
2022/06/30 06:10:54;;;;;;;8.85;2.45;;;22.00;99.90;;;21.80;92.91;101113.84;4976083;28;20053;-77
2022/06/30 06:13:19;;;;;;;9.52;2.53;;;22.20;99.90;;;21.97;90.80;101114.19;4928725;28;20060;-77
2022/06/30 06:15:45;;;;;;;16.00;2.25;;;22.30;99.90;;;21.85;90.50;101119.63;5004213;28;20037;-77
2022/06/30 06:18:11;;;;;;;7.38;2.30;;;22.40;99.90;;;21.69;90.72;101121.97;4992463;28;20045;-77
2022/06/30 06:20:37;;;;;;;10.02;2.45;;;22.40;99.90;;;21.75;91.84;101120.59;4976922;28;20041;-78
2022/06/30 06:23:03;;;;;;;9.82;2.15;;;22.40;99.90;;;21.74;91.93;101124.25;4990603;28;20038;-77
2022/06/30 06:25:29;;;;;;;;;;;22.40;99.90;;;21.43;91.46;101122.41;4973866;28;20026;-77
2022/06/30 06:30:39;;;;;;;13.35;2.40;;;22.10;99.90;;;21.28;92.96;101124.53;4979712;28;20116;-77
2022/06/30 06:33:05;;;;;;;4.97;2.00;;;21.90;99.90;;;21.01;93.72;101133.09;4980578;28;20018;-77
2022/06/30 06:35:30;;;;;;;9.18;2.40;;;21.70;99.90;;;20.68;95.24;101126.91;4999730;28;20029;-77
2022/06/30 06:37:56;;;;;;;7.60;2.05;;;21.70;99.90;;;20.76;96.24;101139.66;4991540;28;20053;-77
2022/06/30 06:40:22;;;;;;;7.72;2.08;;;21.50;99.90;;;20.48;96.61;101130.34;4956321;28;20022;-77
2022/06/30 06:42:48;;;;;;;9.38;2.50;;;21.50;99.90;;;20.76;97.80;101133.47;4999449;28;20147;-77
2022/06/30 06:45:14;;;;;;;7.50;2.13;;;21.60;99.90;;;20.87;97.29;101142.28;4987801;28;20091;-79
2022/06/30 06:47:40;;;;;;;6.25;2.10;;;21.50;99.90;;;20.67;96.88;101130.56;4971134;28;20088;-78
2022/06/30 06:50:07;;;;;;;9.27;2.58;;;21.50;99.90;;;20.74;97.56;101140.78;4989482;28;20081;-77
2022/06/30 06:52:35;;;;;;;5.50;2.42;;;21.60;99.90;;;20.87;97.22;101146.78;4980350;28;20112;-77
2022/06/30 06:55:03;;;;;;;10.63;2.20;;;21.60;99.90;;;20.95;96.72;101149.69;4992935;28;20054;-78
2022/06/30 06:57:38;;;;;;;10.43;2.45;;;21.60;99.90;;;20.89;96.94;101144.84;5000338;28;20038;-78
2022/06/30 07:00:07;;;;;;;7.80;2.28;;;21.60;99.90;;;20.88;96.93;101138.66;4989922;28;20026;-77
2022/06/30 07:02:33;;;;;;;10.48;2.25;;;21.60;99.90;;;21.00;96.82;101149.28;4964499;28;20548;-78
2022/06/30 07:04:59;;;;;;;8.25;2.45;;;21.70;99.90;;;21.04;97.11;101143.53;4983372;28;20038;-77
2022/06/30 07:07:25;;;;;;;9.43;1.95;;;21.70;99.90;;;21.12;96.66;101142.88;4997835;28;20151;-78
2022/06/30 07:09:51;;;;;;;6.28;1.77;;;21.80;99.90;;;21.10;96.70;101139.47;4989693;28;20044;-77
2022/06/30 07:12:20;;;;;;;7.30;2.17;;;21.80;99.90;;;21.15;97.99;101134.59;5003846;28;20844;-77
2022/06/30 07:14:46;;;;;;;4.25;1.67;;;22.00;99.90;;;21.36;97.12;101142.66;4981962;28;20052;-76
2022/06/30 07:17:11;;;;;;;4.85;1.40;;;22.00;99.90;;;21.39;96.13;101142.38;4989459;28;20058;-77
2022/06/30 07:19:37;;;;;;;6.70;2.00;;;22.10;99.90;;;21.60;95.52;101149.59;4989998;28;20075;-77
2022/06/30 07:22:04;;;;;;;9.77;2.63;;;22.30;99.90;;;21.61;94.17;101144.06;4981221;28;20696;-78
2022/06/30 07:24:30;;;;;;;6.97;2.70;;;22.20;99.90;;;21.57;93.38;101142.63;4960389;28;20438;-77
2022/06/30 07:26:56;;;;;;;12.70;2.58;;;22.20;99.90;;;21.61;93.80;101141.41;4949531;28;20041;-77
2022/06/30 07:29:24;;;;;;;8.43;2.63;;;22.30;99.90;;;21.78;93.83;101147.13;4980263;28;20046;-77
2022/06/30 07:31:50;;;;;;;13.50;2.83;;;22.40;99.90;;;21.70;93.67;101139.75;4980853;28;20034;-77
2022/06/30 07:34:16;;;;;;;9.15;2.38;;;22.40;99.90;;;21.66;93.59;101138.31;4978161;28;20034;-77
2022/06/30 07:36:42;;;;;;;8.50;2.50;;;22.30;99.90;;;21.57;94.33;101139.13;4983930;28;20547;-77
2022/06/30 07:39:08;;;;;;;7.57;2.38;;;22.20;99.90;;;21.33;94.61;101145.56;4973577;28;20018;-77
2022/06/30 07:41:34;;;;;;;8.88;2.83;;;22.20;99.90;;;21.37;95.02;101133.63;4981377;28;20432;-79
2022/06/30 07:44:01;;;;;;;11.50;2.70;;;22.10;99.90;;;21.25;96.37;101132.84;4991518;28;21675;-77
2022/06/30 07:46:27;;;;;;;10.60;2.85;;;22.10;99.90;;;21.34;96.61;101141.06;4971087;28;20026;-77
2022/06/30 07:48:53;;;;;;;7.50;2.70;;;22.20;99.90;;;21.43;96.40;101153.72;4954056;28;20030;-77
2022/06/30 07:51:21;;;;;;;11.38;3.13;;;22.10;99.90;;;21.42;97.94;101147.50;4974037;28;20041;-78
2022/06/30 07:53:48;;;;;;;7.88;3.13;;;22.10;99.90;;;21.45;97.61;101143.72;4994873;28;20030;-77
2022/06/30 07:56:14;;;;;;;11.45;3.10;;;22.10;99.90;;;21.37;97.64;101147.00;4978976;28;20456;-78
2022/06/30 07:58:40;;;;;;;9.25;3.20;;;22.10;99.90;;;21.35;98.11;101148.97;4992073;28;20040;-77
2022/06/30 08:01:06;;;;;;;8.13;3.15;;;22.10;99.90;;;21.39;98.03;101145.06;4940352;28;20477;-77
2022/06/30 08:03:32;;;;;;;7.70;3.17;;;22.10;99.90;;;21.39;98.32;101149.56;4988361;28;20029;-79
2022/06/30 08:05:58;;;;;;;8.85;3.60;;;22.10;99.90;;;21.21;99.23;101157.31;4981859;28;20119;-77
2022/06/30 08:08:24;;;;;;;9.52;3.58;;;22.00;99.90;;;21.05;100.00;101155.94;4963487;28;20025;-78
2022/06/30 08:10:50;;;;;;;7.70;3.20;;;21.90;99.90;;;21.07;100.00;101147.78;4960615;28;20497;-78
2022/06/30 08:13:16;;;;;;;9.30;3.08;;;21.90;99.90;;;21.06;100.00;101146.94;4970297;28;20034;-77
2022/06/30 08:15:42;;;;;;;10.65;3.60;;;21.90;99.90;;;21.14;100.00;101146.28;4975113;28;20068;-78
2022/06/30 08:18:09;;;;;;;11.15;3.63;;;22.00;99.90;;;21.24;100.00;101149.03;4988571;28;20034;-77
2022/06/30 08:20:35;;;;;;;10.38;3.60;;;22.00;99.90;;;21.31;100.00;101144.84;4972466;28;20022;-77
2022/06/30 08:23:01;;;;;;;9.55;3.65;;;22.00;99.90;;;21.39;100.00;101142.38;4972992;28;20030;-77
2022/06/30 08:25:27;;;;;;;14.52;3.88;;;22.10;99.90;;;21.41;100.00;101155.66;4976949;28;20486;-77
2022/06/30 08:27:55;;;;;;;9.88;3.55;;;22.10;99.90;;;21.35;99.45;101132.06;4966007;28;20088;-78
2022/06/30 08:30:23;;;;;;;8.68;3.92;;;22.00;99.90;;;20.99;100.00;101132.41;4953242;28;20485;-77
2022/06/30 08:32:50;;;;;;;7.47;3.75;;;22.00;99.90;;;21.21;100.00;101127.88;4973706;28;20041;-78
2022/06/30 08:35:15;;;;;;;13.10;4.05;;;22.00;99.90;;;21.23;100.00;101132.13;4966729;28;20029;-78
2022/06/30 08:37:41;;;;;;;11.55;3.78;;;21.90;99.90;;;21.18;99.76;101131.66;5000237;28;20099;-77
2022/06/30 08:42:56;;;;;;;11.35;3.90;;;21.90;99.90;;;21.06;100.00;101122.84;4964954;28;20041;-76
2022/06/30 08:45:24;;;;;;;13.43;5.18;;;22.00;99.90;;;21.29;100.00;101131.63;4971548;28;20034;-77
2022/06/30 08:47:51;;;;;;;12.55;3.47;;;22.10;99.90;;;21.39;99.79;101145.06;4957251;28;21228;-77
2022/06/30 08:50:18;;;;;;;4.03;2.38;;;22.00;99.90;;;21.21;100.00;101143.94;4989635;28;20033;-78
2022/06/30 08:52:53;;;;;;;4.65;2.92;;;22.10;99.90;;;21.40;99.68;101141.38;4981003;28;20042;-77
2022/06/30 08:55:25;;;;;;;14.55;3.50;;;22.20;99.90;;;21.63;98.18;101138.59;4970486;28;20026;-77
2022/06/30 08:58:01;;;;;;;6.07;3.42;;;22.30;99.90;;;21.73;97.95;101135.94;4970066;28;20138;-77
2022/06/30 09:00:27;;;;;;;6.38;3.40;;;22.30;99.90;;;21.64;96.19;101124.19;4978695;28;20486;-77
2022/06/30 09:02:53;;;;;;;11.07;3.70;;;22.40;99.90;;;21.71;96.88;101128.06;4967170;28;20610;-77
2022/06/30 09:05:20;;;;;;;8.50;3.80;;;22.50;99.90;;;22.00;95.19;101125.47;4970958;28;20026;-77
2022/06/30 09:07:46;;;;;;;6.30;3.78;;;22.70;99.90;;;22.23;93.49;101128.00;4946650;28;20100;-78
2022/06/30 09:10:12;;;;;;;7.93;3.63;;;22.70;99.90;;;22.00;93.53;101127.31;4981765;28;20102;-77
2022/06/30 09:12:38;;;;;;;6.97;3.30;;;22.80;99.90;;;22.22;93.68;101131.59;4987528;28;20049;-77
2022/06/30 09:15:05;;;;;;;7.00;3.20;;;22.90;99.90;;;22.25;92.20;101128.69;4959623;28;20022;-77
2022/06/30 09:17:31;;;;;;;7.60;3.28;;;22.90;99.90;;;22.20;92.60;101131.78;4981473;28;20060;-78
2022/06/30 09:20:05;;;;;;;8.15;4.22;;;22.90;99.90;;;22.06;92.47;101121.41;4996515;28;20388;-76
2022/06/30 09:22:37;;;;;;;9.45;3.45;;;22.80;99.90;;;22.04;92.63;101118.03;5009156;28;20041;-77
2022/06/30 09:25:15;;;;;;;6.22;3.45;;;22.70;99.90;;;21.80;93.62;101113.84;4958433;28;20034;-77
2022/06/30 09:27:47;;;;;;;9.48;3.72;;;22.60;99.90;;;21.74;93.19;101118.91;4961491;28;20038;-78
2022/06/30 09:30:23;;;;;;;10.60;3.63;;;22.60;99.90;;;21.75;93.86;101118.78;4976742;28;20049;-77
2022/06/30 09:32:50;;;;;;;13.40;4.30;;;22.50;99.90;;;21.73;94.07;101125.22;4968649;28;20018;-77
2022/06/30 09:35:18;;;;;;;12.57;3.72;;;22.40;99.90;;;21.48;95.01;101120.16;4986908;28;20720;-77
2022/06/30 09:38:07;;;;;;;8.95;4.32;;;22.40;99.90;;;21.54;94.86;101117.97;4973287;28;20521;-77
2022/06/30 09:40:36;;;;;;;8.05;4.22;;;22.20;99.90;;;21.33;96.55;101112.59;4985263;28;20389;-77
2022/06/30 09:43:06;;;;;;;6.95;2.88;;;22.30;99.90;;;21.50;97.00;101115.53;4988098;28;20402;-77
2022/06/30 09:45:45;;;;;;;12.82;3.63;;;22.30;99.90;;;21.44;97.37;101113.38;4979668;28;20019;-77
2022/06/30 09:48:19;;;;;;;7.60;3.60;;;22.10;99.90;;;20.88;100.00;101109.19;4981283;28;20038;-77
2022/06/30 09:51:04;;;;;;;4.90;3.35;;;21.90;99.90;;;20.80;100.00;101102.75;4985395;28;20049;-77
2022/06/30 09:53:30;;;;;;;10.82;4.07;;;21.80;99.90;;;20.91;100.00;101113.44;4973341;28;20041;-76
2022/06/30 09:56:09;;;;;;;12.07;5.82;;;21.80;99.90;;;20.94;100.00;101104.31;4993019;28;20022;-77
2022/06/30 09:58:43;;;;;;;10.43;4.97;;;21.80;99.90;;;21.04;100.00;101103.41;4990379;28;20038;-77
2022/06/30 10:01:16;;;;;;;12.32;4.38;;;21.70;99.90;;;20.96;100.00;101105.88;4980821;28;20034;-77
2022/06/30 10:04:05;;;;;;;10.88;3.80;;;21.80;99.90;;;21.18;100.00;101104.03;4992487;28;20034;-77
2022/06/30 10:06:34;;;;;;;8.25;4.45;;;21.70;99.90;;;21.03;100.00;101100.84;4967319;28;20104;-76
2022/06/30 10:09:00;;;;;;;10.38;5.00;;;21.70;99.90;;;21.04;100.00;101095.34;4978927;28;20489;-77
2022/06/30 10:11:29;;;;;;;10.82;4.47;;;21.80;99.90;;;21.21;100.00;101093.06;4975439;28;20037;-77
2022/06/30 10:13:55;;;;;;;8.95;4.40;;;21.80;99.90;;;20.98;100.00;101098.56;4990332;28;20113;-77
2022/06/30 10:16:23;;;;;;;29.80;8.55;;;21.70;99.90;;;20.98;100.00;101085.16;4991994;28;20086;-78
2022/06/30 10:18:50;;;;;;;22.63;6.15;;;21.70;99.90;;;20.92;100.00;101080.34;4991522;28;20057;-78
2022/06/30 10:21:29;;;;;;;17.52;5.72;;;21.70;99.90;;;20.90;100.00;101077.78;4992793;28;20026;-77
2022/06/30 10:23:58;;;;;;;18.27;6.35;;;21.80;99.90;;;21.15;100.00;101082.91;4961882;28;20049;-77